| time (UTC) | temp F | wind direction | speed MPH | gust MPH | rain 1hr in | rain 24hr in | rain mn in | humidity % | barometer mb |
| 20260906222018 | 77 | 18 | 0.0 | 0.0 | 0.00 | 0.01 | 0.00 | 53 | 980.5 |
| 20260906221915 | 77 | 18 | 0.0 | 0.0 | 0.00 | 0.01 | 0.00 | 53 | 980.5 |
| 20260906221237 | 77 | 18 | 0.0 | 0.0 | 0.00 | 0.01 | 0.00 | 52 | 980.4 |
| 20260906220556 | 77 | 18 | 0.0 | 0.0 | 0.00 | 0.01 | 0.00 | 52 | 980.6 |
| 20260906220005 | 77 | 18 | 0.0 | 0.0 | 0.00 | 0.01 | 0.00 | 52 | 980.6 |
| 20260906215919 | 77 | 18 | 0.0 | 0.0 | 0.00 | 0.01 | 0.00 | 52 | 980.6 |
| 20260906215238 | 77 | 39 | 0.0 | 0.0 | 0.00 | 0.01 | 0.00 | 52 | 980.8 |
| 20260906214601 | 77 | 353 | 6.0 | 3.0 | 0.00 | 0.01 | 0.00 | 52 | 980.9 |
| 20260906214020 | 77 | 149 | 0.0 | 0.0 | 0.00 | 0.01 | 0.00 | 52 | 980.9 |
| 20260906213920 | 77 | 149 | 0.0 | 0.0 | 0.00 | 0.01 | 0.00 | 52 | 980.9 |
| 20260906213243 | 77 | 69 | 0.0 | 0.0 | 0.00 | 0.01 | 0.00 | 52 | 980.9 |
| 20260906212602 | 77 | 114 | 3.0 | 3.0 | 0.00 | 0.01 | 0.00 | 53 | 980.9 |
| 20260906212116 | 77 | 359 | 0.0 | 0.0 | 0.00 | 0.01 | 0.00 | 54 | 981.0 |
| 20260906211925 | 77 | 359 | 0.0 | 0.0 | 0.00 | 0.01 | 0.00 | 54 | 981.0 |
| 20260906211244 | 77 | 27 | 5.0 | 9.0 | 0.00 | 0.01 | 0.00 | 54 | 981.2 |
| 20260906210607 | 77 | 42 | 6.0 | 5.0 | 0.00 | 0.01 | 0.00 | 53 | 981.0 |
| 20260906205926 | 77 | 0 | 4.0 | 3.0 | 0.00 | 0.01 | 0.00 | 53 | 981.0 |
| 20260906204726 | 77 | 75 | 5.0 | 6.0 | 0.00 | 0.01 | 0.00 | 54 | 981.2 |
| 20260906204608 | 77 | 75 | 5.0 | 6.0 | 0.00 | 0.01 | 0.00 | 54 | 981.2 |
| 20260906204111 | 77 | 77 | 7.0 | 7.0 | 0.00 | 0.01 | 0.00 | 55 | 981.0 |
| 20260906203931 | 77 | 77 | 7.0 | 7.0 | 0.00 | 0.01 | 0.00 | 55 | 981.0 |
| 20260906203250 | 77 | 160 | 2.0 | 0.0 | 0.00 | 0.01 | 0.00 | 56 | 981.0 |
| 20260906202613 | 76 | 53 | 0.0 | 0.0 | 0.00 | 0.01 | 0.00 | 56 | 980.9 |
| 20260906201932 | 76 | 53 | 2.0 | 0.0 | 0.00 | 0.01 | 0.00 | 55 | 981.0 |
| 20260906201255 | 77 | 73 | 9.0 | 9.0 | 0.00 | 0.01 | 0.00 | 54 | 981.2 |
| 20260906200614 | 77 | 1 | 6.0 | 6.0 | 0.00 | 0.01 | 0.00 | 56 | 981.1 |
| 20260906195937 | 77 | 45 | 9.0 | 8.0 | 0.00 | 0.01 | 0.00 | 56 | 981.2 |
| 20260906195337 | 77 | 186 | 9.0 | 6.0 | 0.00 | 0.01 | 0.00 | 55 | 981.3 |
| 20260906195256 | 77 | 186 | 9.0 | 6.0 | 0.00 | 0.01 | 0.00 | 55 | 981.3 |
| 20260906194619 | 76 | 114 | 1.0 | 0.0 | 0.00 | 0.01 | 0.00 | 56 | 981.2 |
| 20260906193938 | 76 | 63 | 5.0 | 3.0 | 0.00 | 0.01 | 0.00 | 56 | 981.4 |
| 20260906193301 | 77 | 58 | 6.0 | 7.0 | 0.00 | 0.01 | 0.00 | 57 | 981.5 |
| 20260906192621 | 77 | 136 | 4.0 | 3.0 | 0.00 | 0.01 | 0.00 | 56 | 981.4 |
| 20260906191943 | 76 | 70 | 1.0 | 0.0 | 0.00 | 0.01 | 0.00 | 57 | 981.5 |
| 20260906191413 | 76 | 44 | 2.0 | 0.0 | 0.00 | 0.01 | 0.00 | 57 | 981.7 |
| 20260906191303 | 76 | 44 | 2.0 | 0.0 | 0.00 | 0.01 | 0.00 | 57 | 981.7 |
| 20260906190712 | 76 | 6 | 8.0 | 2.0 | 0.00 | 0.01 | 0.00 | 58 | 981.5 |
| 20260906190626 | 76 | 6 | 8.0 | 2.0 | 0.00 | 0.01 | 0.00 | 58 | 981.5 |
| 20260906185945 | 76 | 117 | 4.0 | 5.0 | 0.00 | 0.01 | 0.00 | 58 | 981.5 |
| 20260906185308 | 76 | 359 | 8.0 | 0.0 | 0.00 | 0.01 | 0.00 | 58 | 981.5 |
| 20260906184627 | 76 | 4 | 7.0 | 5.0 | 0.00 | 0.01 | 0.00 | 59 | 981.6 |
| 20260906183950 | 76 | 131 | 6.0 | 5.0 | 0.00 | 0.01 | 0.00 | 59 | 981.6 |
| 20260906183351 | 76 | 49 | 6.0 | 5.0 | 0.00 | 0.01 | 0.00 | 59 | 981.7 |
| 20260906183309 | 76 | 49 | 6.0 | 5.0 | 0.00 | 0.01 | 0.00 | 59 | 981.7 |
| 20260906182632 | 76 | 90 | 8.0 | 0.0 | 0.00 | 0.01 | 0.00 | 60 | 981.7 |
| 20260906181951 | 75 | 187 | 1.0 | 0.0 | 0.00 | 0.01 | 0.00 | 60 | 981.7 |
| 20260906181314 | 75 | 125 | 2.0 | 6.0 | 0.00 | 0.01 | 0.00 | 59 | 981.9 |
| 20260906175956 | 75 | 122 | 2.0 | 0.0 | 0.00 | 0.01 | 0.00 | 62 | 982.0 |
| 20260906175316 | 74 | 110 | 0.0 | 0.0 | 0.00 | 0.01 | 0.00 | 63 | 982.0 |
| 20260906174713 | 74 | 113 | 0.0 | 0.0 | 0.00 | 0.01 | 0.00 | 62 | 982.1 |
| 20260906174639 | 74 | 113 | 0.0 | 0.0 | 0.00 | 0.01 | 0.00 | 62 | 982.1 |
| 20260906174040 | 74 | 86 | 7.0 | 0.0 | 0.00 | 0.01 | 0.00 | 65 | 982.2 |
| 20260906173958 | 74 | 86 | 7.0 | 0.0 | 0.00 | 0.01 | 0.00 | 65 | 982.2 |
| 20260906173321 | 74 | 38 | 6.0 | 0.0 | 0.00 | 0.01 | 0.00 | 65 | 982.3 |
| 20260906172640 | 74 | 48 | 6.0 | 5.0 | 0.00 | 0.01 | 0.00 | 64 | 982.3 |
| 20260906172035 | 74 | 150 | 7.0 | 9.0 | 0.00 | 0.01 | 0.00 | 65 | 982.5 |
| 20260906172003 | 74 | 150 | 7.0 | 9.0 | 0.00 | 0.01 | 0.00 | 65 | 982.5 |
| 20260906171357 | 73 | 30 | 1.0 | 0.0 | 0.00 | 0.01 | 0.00 | 67 | 982.5 |
| 20260906171322 | 73 | 30 | 1.0 | 0.0 | 0.00 | 0.01 | 0.00 | 67 | 982.5 |
| 20260906170839 | 73 | 75 | 4.0 | 6.0 | 0.00 | 0.01 | 0.00 | 65 | 982.5 |
| 20260906170645 | 73 | 75 | 4.0 | 6.0 | 0.00 | 0.01 | 0.00 | 65 | 982.5 |
| 20260906165328 | 73 | 69 | 10.0 | 7.0 | 0.00 | 0.01 | 0.00 | 69 | 982.6 |
| 20260906164647 | 73 | 46 | 5.0 | 5.0 | 0.00 | 0.01 | 0.00 | 70 | 982.8 |
| 20260906164010 | 72 | 32 | 7.0 | 6.0 | 0.00 | 0.01 | 0.00 | 70 | 982.8 |
| 20260906163408 | 72 | 14 | 6.0 | 6.0 | 0.00 | 0.01 | 0.00 | 69 | 982.8 |
| 20260906163329 | 72 | 14 | 6.0 | 6.0 | 0.00 | 0.01 | 0.00 | 69 | 982.8 |
| 20260906162050 | 72 | 20 | 7.0 | 8.0 | 0.00 | 0.01 | 0.00 | 71 | 982.9 |
| 20260906162012 | 72 | 20 | 7.0 | 8.0 | 0.00 | 0.01 | 0.00 | 71 | 982.9 |
| 20260906161410 | 72 | 13 | 3.0 | 0.0 | 0.00 | 0.01 | 0.00 | 71 | 982.9 |
| 20260906161335 | 72 | 13 | 3.0 | 0.0 | 0.00 | 0.01 | 0.00 | 71 | 982.9 |
| 20260906160733 | 72 | 359 | 6.0 | 0.0 | 0.00 | 0.01 | 0.00 | 72 | 982.9 |
| 20260906160654 | 72 | 359 | 6.0 | 0.0 | 0.00 | 0.01 | 0.00 | 72 | 982.9 |
| 20260906160017 | 72 | 0 | 7.0 | 6.0 | 0.00 | 0.01 | 0.00 | 72 | 982.9 |
| 20260906155412 | 71 | 7 | 6.0 | 6.0 | 0.00 | 0.01 | 0.00 | 74 | 983.0 |
| 20260906155336 | 71 | 7 | 6.0 | 6.0 | 0.00 | 0.01 | 0.00 | 74 | 983.0 |
| 20260906154747 | 71 | 79 | 7.0 | 5.0 | 0.00 | 0.01 | 0.00 | 74 | 983.3 |
| 20260906154659 | 71 | 79 | 7.0 | 5.0 | 0.00 | 0.01 | 0.00 | 74 | 983.3 |
| 20260906154019 | 71 | 108 | 0.0 | 0.0 | 0.00 | 0.01 | 0.00 | 75 | 983.3 |
| 20260906153414 | 71 | 77 | 9.0 | 7.0 | 0.00 | 0.01 | 0.00 | 76 | 983.4 |
| 20260906153342 | 71 | 77 | 9.0 | 7.0 | 0.00 | 0.01 | 0.00 | 76 | 983.4 |
| 20260906152701 | 71 | 6 | 5.0 | 4.0 | 0.00 | 0.01 | 0.00 | 75 | 983.4 |
| 20260906152058 | 70 | 4 | 4.0 | 3.0 | 0.00 | 0.01 | 0.00 | 78 | 983.3 |
| 20260906152024 | 70 | 4 | 4.0 | 3.0 | 0.00 | 0.01 | 0.00 | 78 | 983.3 |
| 20260906150026 | 69 | 342 | 7.0 | 5.0 | 0.00 | 0.01 | 0.00 | 80 | 983.2 |
| 20260906145349 | 69 | 62 | 2.0 | 7.0 | 0.00 | 0.01 | 0.00 | 83 | 983.2 |
| 20260906144709 | 69 | 90 | 6.0 | 7.0 | 0.00 | 0.01 | 0.00 | 84 | 983.3 |
| 20260906144032 | 68 | 44 | 9.0 | 8.0 | 0.00 | 0.01 | 0.00 | 85 | 983.1 |
| 20260906143351 | 68 | 69 | 6.0 | 8.0 | 0.00 | 0.01 | 0.00 | 87 | 983.2 |
| 20260906142107 | 67 | 103 | 6.0 | 6.0 | 0.00 | 0.01 | 0.00 | 90 | 983.0 |
| 20260906142034 | 67 | 103 | 6.0 | 6.0 | 0.00 | 0.01 | 0.00 | 90 | 983.0 |
| 20260906140112 | 65 | 91 | 6.0 | 4.0 | 0.00 | 0.01 | 0.00 | 97 | 982.9 |
| 20260906140039 | 65 | 91 | 6.0 | 4.0 | 0.00 | 0.01 | 0.00 | 97 | 982.9 |
| 20260906133442 | 62 | 8 | 4.0 | 4.0 | 0.00 | 0.01 | 0.00 | 100 | 983.0 |
| 20260906133404 | 62 | 8 | 4.0 | 4.0 | 0.00 | 0.01 | 0.00 | 100 | 983.0 |
| 20260906132833 | 61 | 35 | 4.0 | 6.0 | 0.00 | 0.01 | 0.00 | 100 | 983.1 |
| 20260906132724 | 61 | 35 | 4.0 | 6.0 | 0.00 | 0.01 | 0.00 | 100 | 983.1 |
| 20260906132046 | 61 | 359 | 4.0 | 4.0 | 0.00 | 0.01 | 0.00 | 100 | 983.3 |
| 20260906131452 | 60 | 6 | 2.0 | 0.0 | 0.00 | 0.01 | 0.00 | 100 | 983.3 |
| 20260906131406 | 60 | 6 | 2.0 | 0.0 | 0.00 | 0.01 | 0.00 | 100 | 983.3 |
| 20260906130807 | 60 | 321 | 2.0 | 0.0 | 0.00 | 0.01 | 0.00 | 100 | 983.5 |
| 20260906130729 | 60 | 321 | 2.0 | 0.0 | 0.00 | 0.01 | 0.00 | 100 | 983.5 |
| 20260906130049 | 59 | 336 | 4.0 | 3.0 | 0.00 | 0.01 | 0.00 | 100 | 983.5 |
| 20260906125412 | 58 | 346 | 0.0 | 0.0 | 0.00 | 0.01 | 0.00 | 100 | 983.5 |
| 20260906124133 | 57 | 84 | 0.0 | 0.0 | 0.00 | 0.01 | 0.00 | 100 | 983.5 |
| 20260906124054 | 57 | 84 | 0.0 | 0.0 | 0.00 | 0.01 | 0.00 | 100 | 983.5 |
| 20260906123414 | 57 | 84 | 0.0 | 0.0 | 0.00 | 0.01 | 0.00 | 100 | 983.6 |
| 20260906122737 | 56 | 84 | 0.0 | 0.0 | 0.00 | 0.01 | 0.00 | 100 | 983.6 |
| 20260906121451 | 55 | 84 | 0.0 | 0.0 | 0.00 | 0.01 | 0.00 | 100 | 983.7 |
| 20260906121419 | 55 | 84 | 0.0 | 0.0 | 0.00 | 0.01 | 0.00 | 100 | 983.7 |
| 20260906120133 | 54 | 84 | 0.0 | 0.0 | 0.00 | 0.01 | 0.00 | 100 | 983.8 |
| 20260906114744 | 53 | 84 | 0.0 | 0.0 | 0.00 | 0.01 | 0.00 | 100 | 983.5 |
| 20260906114135 | 53 | 84 | 0.0 | 0.0 | 0.00 | 0.01 | 0.00 | 100 | 983.3 |
| 20260906114104 | 53 | 84 | 0.0 | 0.0 | 0.00 | 0.01 | 0.00 | 100 | 983.3 |
| 20260906112745 | 53 | 84 | 0.0 | 0.0 | 0.00 | 0.01 | 0.00 | 100 | 983.2 |
| 20260906112109 | 53 | 84 | 0.0 | 0.0 | 0.00 | 0.01 | 0.00 | 100 | 983.1 |
| 20260906111428 | 53 | 84 | 0.0 | 0.0 | 0.00 | 0.01 | 0.00 | 100 | 983.0 |
| 20260906110751 | 53 | 84 | 0.0 | 0.0 | 0.00 | 0.01 | 0.00 | 100 | 982.9 |
| 20260906110111 | 54 | 84 | 0.0 | 0.0 | 0.00 | 0.01 | 0.00 | 100 | 983.0 |
| 20260906105434 | 54 | 84 | 0.0 | 0.0 | 0.00 | 0.01 | 0.00 | 100 | 983.1 |
| 20260906104839 | 54 | 84 | 0.0 | 0.0 | 0.00 | 0.01 | 0.00 | 100 | 983.0 |
| 20260906104753 | 54 | 84 | 0.0 | 0.0 | 0.00 | 0.01 | 0.00 | 100 | 983.0 |
| 20260906104116 | 53 | 84 | 0.0 | 0.0 | 0.00 | 0.01 | 0.00 | 100 | 983.1 |
| 20260906103434 | 53 | 84 | 0.0 | 0.0 | 0.00 | 0.01 | 0.00 | 100 | 983.2 |
| 20260906102945 | 53 | 84 | 0.0 | 0.0 | 0.00 | 0.01 | 0.00 | 100 | 983.2 |
| 20260906102759 | 53 | 84 | 0.0 | 0.0 | 0.00 | 0.01 | 0.00 | 100 | 983.2 |
| 20260906102118 | 54 | 84 | 0.0 | 0.0 | 0.00 | 0.01 | 0.00 | 100 | 983.2 |
| 20260906101523 | 54 | 84 | 0.0 | 0.0 | 0.00 | 0.01 | 0.00 | 100 | 983.1 |
| 20260906101441 | 54 | 84 | 0.0 | 0.0 | 0.00 | 0.01 | 0.00 | 100 | 983.1 |
| 20260906100912 | 54 | 84 | 0.0 | 0.0 | 0.00 | 0.01 | 0.00 | 100 | 983.0 |
| 20260906100800 | 54 | 84 | 0.0 | 0.0 | 0.00 | 0.01 | 0.00 | 100 | 983.0 |
| 20260906100123 | 54 | 84 | 0.0 | 0.0 | 0.00 | 0.01 | 0.00 | 100 | 982.9 |
| 20260906095521 | 54 | 84 | 0.0 | 0.0 | 0.00 | 0.01 | 0.00 | 100 | 983.0 |
| 20260906095443 | 54 | 84 | 0.0 | 0.0 | 0.00 | 0.01 | 0.00 | 100 | 983.0 |
| 20260906094925 | 54 | 84 | 0.0 | 0.0 | 0.00 | 0.01 | 0.00 | 100 | 982.8 |
| 20260906094806 | 54 | 84 | 0.0 | 0.0 | 0.00 | 0.01 | 0.00 | 100 | 982.8 |
| 20260906094125 | 55 | 84 | 0.0 | 0.0 | 0.00 | 0.01 | 0.00 | 100 | 982.7 |
| 20260906092858 | 55 | 84 | 0.0 | 0.0 | 0.00 | 0.01 | 0.00 | 100 | 982.7 |
| 20260906092808 | 55 | 84 | 0.0 | 0.0 | 0.00 | 0.01 | 0.00 | 100 | 982.7 |
| 20260906092131 | 55 | 84 | 0.0 | 0.0 | 0.00 | 0.01 | 0.00 | 100 | 982.7 |
| 20260906091450 | 55 | 84 | 0.0 | 0.0 | 0.00 | 0.01 | 0.00 | 100 | 982.5 |
| 20260906090940 | 56 | 84 | 0.0 | 0.0 | 0.00 | 0.01 | 0.00 | 100 | 982.5 |
| 20260906090813 | 56 | 84 | 0.0 | 0.0 | 0.00 | 0.01 | 0.00 | 100 | 982.5 |
| 20260906090131 | 56 | 84 | 0.0 | 0.0 | 0.00 | 0.01 | 0.00 | 100 | 982.5 |
| 20260906084936 | 56 | 84 | 0.0 | 0.0 | 0.00 | 0.01 | 0.00 | 100 | 982.4 |
| 20260906084815 | 56 | 84 | 0.0 | 0.0 | 0.00 | 0.01 | 0.00 | 100 | 982.4 |
| 20260906083534 | 57 | 84 | 0.0 | 0.0 | 0.00 | 0.01 | 0.00 | 100 | 982.3 |
| 20260906083457 | 57 | 84 | 0.0 | 0.0 | 0.00 | 0.01 | 0.00 | 100 | 982.3 |
| 20260906082227 | 57 | 84 | 0.0 | 0.0 | 0.00 | 0.01 | 0.00 | 100 | 981.9 |
| 20260906082140 | 57 | 84 | 0.0 | 0.0 | 0.00 | 0.01 | 0.00 | 100 | 981.9 |
| 20260906080911 | 57 | 84 | 0.0 | 0.0 | 0.00 | 0.01 | 0.00 | 100 | 981.9 |
| 20260906080820 | 57 | 84 | 0.0 | 0.0 | 0.00 | 0.01 | 0.00 | 100 | 981.9 |
| 20260906080143 | 57 | 84 | 0.0 | 0.0 | 0.00 | 0.01 | 0.00 | 100 | 981.8 |
| 20260906075504 | 57 | 84 | 0.0 | 0.0 | 0.00 | 0.01 | 0.00 | 100 | 981.8 |
| 20260906074827 | 57 | 84 | 0.0 | 0.0 | 0.00 | 0.01 | 0.00 | 100 | 982.0 |
| 20260906073509 | 58 | 84 | 0.0 | 0.0 | 0.00 | 0.01 | 0.00 | 100 | 982.0 |
| 20260906072928 | 58 | 84 | 0.0 | 0.0 | 0.00 | 0.01 | 0.00 | 100 | 981.9 |
| 20260906072828 | 58 | 84 | 0.0 | 0.0 | 0.00 | 0.01 | 0.00 | 100 | 981.9 |
| 20260906072224 | 58 | 84 | 0.0 | 0.0 | 0.00 | 0.01 | 0.00 | 100 | 981.8 |
| 20260906072152 | 58 | 84 | 0.0 | 0.0 | 0.00 | 0.01 | 0.00 | 100 | 981.8 |
| 20260906071544 | 58 | 84 | 0.0 | 0.0 | 0.00 | 0.01 | 0.00 | 100 | 981.9 |
| 20260906071511 | 58 | 84 | 0.0 | 0.0 | 0.00 | 0.01 | 0.00 | 100 | 981.9 |
| 20260906070154 | 59 | 84 | 0.0 | 0.0 | 0.00 | 0.01 | 0.00 | 100 | 981.8 |
| 20260906064950 | 59 | 84 | 0.0 | 0.0 | 0.00 | 0.01 | 0.00 | 100 | 981.8 |
| 20260906064836 | 59 | 84 | 0.0 | 0.0 | 0.00 | 0.01 | 0.00 | 100 | 981.8 |
| 20260906064233 | 59 | 84 | 0.0 | 0.0 | 0.00 | 0.01 | 0.00 | 100 | 981.7 |
| 20260906064159 | 59 | 84 | 0.0 | 0.0 | 0.00 | 0.01 | 0.00 | 100 | 981.7 |
| 20260906063518 | 59 | 84 | 0.0 | 0.0 | 0.00 | 0.01 | 0.00 | 100 | 981.7 |
| 20260906062840 | 59 | 84 | 0.0 | 0.0 | 0.00 | 0.01 | 0.00 | 100 | 981.9 |
| 20260906062201 | 60 | 84 | 0.0 | 0.0 | 0.00 | 0.01 | 0.00 | 100 | 982.0 |
| 20260906060843 | 60 | 84 | 0.0 | 0.0 | 0.00 | 0.01 | 0.00 | 100 | 982.0 |
| 20260906060206 | 61 | 84 | 0.0 | 0.0 | 0.00 | 0.01 | 0.00 | 100 | 981.9 |
| 20260906055625 | 61 | 84 | 0.0 | 0.0 | 0.00 | 0.01 | 0.00 | 100 | 981.8 |
| 20260906055525 | 61 | 84 | 0.0 | 0.0 | 0.00 | 0.01 | 0.00 | 100 | 981.8 |
| 20260906054208 | 62 | 84 | 0.0 | 0.0 | 0.00 | 0.01 | 0.00 | 100 | 981.6 |
| 20260906053619 | 62 | 84 | 0.0 | 0.0 | 0.00 | 0.01 | 0.00 | 100 | 981.5 |
| 20260906053530 | 62 | 84 | 0.0 | 0.0 | 0.00 | 0.01 | 0.00 | 100 | 981.5 |
| 20260906052850 | 62 | 84 | 0.0 | 0.0 | 0.00 | 0.01 | 0.00 | 100 | 981.6 |
| 20260906051624 | 62 | 84 | 0.0 | 0.0 | 0.00 | 0.01 | 0.00 | 99 | 981.5 |
| 20260906051532 | 62 | 84 | 0.0 | 0.0 | 0.00 | 0.01 | 0.00 | 99 | 981.5 |
| 20260906050854 | 63 | 84 | 0.0 | 0.0 | 0.00 | 0.01 | 0.00 | 98 | 981.6 |
| 20260906050215 | 63 | 84 | 0.0 | 0.0 | 0.00 | 0.01 | 0.00 | 97 | 981.6 |
| 20260906045626 | 63 | 84 | 0.0 | 0.0 | 0.00 | 0.01 | 0.00 | 97 | 981.5 |
| 20260906045537 | 63 | 84 | 0.0 | 0.0 | 0.00 | 0.01 | 0.00 | 97 | 981.5 |
| 20260906044857 | 64 | 84 | 0.0 | 0.0 | 0.00 | 0.01 | 0.00 | 96 | 981.3 |
| 20260906044220 | 64 | 84 | 0.0 | 0.0 | 0.00 | 0.01 | 0.00 | 96 | 981.2 |
| 20260906042319 | 64 | 84 | 0.0 | 0.0 | 0.00 | 0.01 | 0.00 | 96 | 981.2 |
| 20260906042222 | 64 | 84 | 0.0 | 0.0 | 0.00 | 0.01 | 0.00 | 96 | 981.2 |
| 20260906041626 | 65 | 84 | 0.0 | 0.0 | 0.00 | 0.01 | 0.00 | 95 | 981.1 |
| 20260906041545 | 65 | 84 | 0.0 | 0.0 | 0.00 | 0.01 | 0.00 | 95 | 981.1 |
| 20260906040904 | 65 | 107 | 2.0 | 0.0 | 0.00 | 0.01 | 0.00 | 95 | 981.0 |
| 20260906040227 | 65 | 79 | 2.0 | 0.0 | 0.00 | 0.01 | 0.00 | 95 | 980.9 |
| 20260906035546 | 65 | 93 | 1.0 | 0.0 | 0.00 | 0.44 | 0.01 | 95 | 980.7 |
| 20260906034909 | 65 | 86 | 0.0 | 4.0 | 0.00 | 0.44 | 0.01 | 95 | 980.7 |
| 20260906034228 | 65 | 91 | 4.0 | 0.0 | 0.00 | 0.44 | 0.01 | 95 | 980.7 |
| 20260906033551 | 66 | 104 | 6.0 | 3.0 | 0.00 | 0.44 | 0.01 | 95 | 980.6 |
| 20260906032911 | 66 | 110 | 0.0 | 0.0 | 0.00 | 0.44 | 0.01 | 96 | 980.6 |
| 20260906032234 | 66 | 60 | 5.0 | 4.0 | 0.00 | 0.44 | 0.01 | 96 | 980.4 |
| 20260906031652 | 66 | 27 | 4.0 | 0.0 | 0.00 | 0.44 | 0.01 | 96 | 980.4 |
| 20260906031553 | 66 | 27 | 4.0 | 0.0 | 0.00 | 0.44 | 0.01 | 96 | 980.4 |
| 20260906030916 | 66 | 93 | 2.0 | 0.0 | 0.00 | 0.44 | 0.01 | 97 | 980.4 |
| 20260906030235 | 67 | 73 | 0.0 | 0.0 | 0.00 | 0.44 | 0.01 | 98 | 980.3 |
| 20260906025635 | 67 | 73 | 0.0 | 0.0 | 0.00 | 0.44 | 0.01 | 98 | 980.3 |
| 20260906025558 | 67 | 73 | 0.0 | 0.0 | 0.00 | 0.44 | 0.01 | 98 | 980.3 |
| 20260906024917 | 67 | 73 | 0.0 | 0.0 | 0.00 | 0.44 | 0.01 | 98 | 980.3 |
| 20260906024240 | 67 | 73 | 0.0 | 0.0 | 0.00 | 0.44 | 0.01 | 99 | 980.3 |
| 20260906023600 | 67 | 73 | 0.0 | 0.0 | 0.00 | 0.44 | 0.01 | 100 | 980.2 |
| 20260906022921 | 67 | 73 | 0.0 | 0.0 | 0.00 | 0.44 | 0.01 | 100 | 980.2 |
| 20260906022242 | 67 | 73 | 0.0 | 0.0 | 0.00 | 0.44 | 0.01 | 100 | 980.2 |
| 20260906021604 | 66 | 73 | 0.0 | 0.0 | 0.00 | 0.44 | 0.01 | 100 | 980.1 |
| 20260906020924 | 66 | 73 | 0.0 | 0.0 | 0.00 | 0.44 | 0.01 | 100 | 980.1 |
| 20260906015607 | 66 | 73 | 0.0 | 0.0 | 0.00 | 0.44 | 0.01 | 100 | 979.9 |
| 20260906014929 | 66 | 73 | 0.0 | 0.0 | 0.00 | 0.44 | 0.01 | 100 | 979.7 |
| 20260906013612 | 67 | 73 | 0.0 | 0.0 | 0.00 | 0.44 | 0.01 | 100 | 979.6 |
| 20260906012931 | 67 | 73 | 0.0 | 0.0 | 0.00 | 0.44 | 0.01 | 100 | 979.3 |
| 20260906012254 | 67 | 73 | 0.0 | 0.0 | 0.00 | 0.44 | 0.01 | 100 | 979.2 |
| 20260906011612 | 68 | 73 | 0.0 | 0.0 | 0.00 | 0.44 | 0.01 | 100 | 979.1 |
| 20260906010936 | 68 | 73 | 0.0 | 0.0 | 0.00 | 0.44 | 0.01 | 100 | 978.9 |
| 20260906010255 | 68 | 73 | 0.0 | 0.0 | 0.00 | 0.44 | 0.01 | 100 | 979.0 |
| 20260906005617 | 69 | 73 | 0.0 | 0.0 | 0.00 | 0.44 | 0.01 | 100 | 978.8 |
| 20260906004936 | 69 | 73 | 0.0 | 0.0 | 0.00 | 0.44 | 0.01 | 99 | 978.8 |
| 20260906004300 | 70 | 73 | 0.0 | 0.0 | 0.00 | 0.44 | 0.01 | 98 | 978.7 |
| 20260906003620 | 71 | 73 | 0.0 | 0.0 | 0.00 | 0.44 | 0.01 | 96 | 978.6 |
| 20260906002305 | 72 | 73 | 0.0 | 0.0 | 0.00 | 0.44 | 0.01 | 92 | 978.5 |
| 20260906001625 | 73 | 73 | 0.0 | 0.0 | 0.00 | 0.44 | 0.01 | 90 | 978.5 |
| 20260906000944 | 74 | 73 | 0.0 | 0.0 | 0.00 | 0.44 | 0.01 | 87 | 978.4 |
| 20260906000411 | 74 | 73 | 0.0 | 0.0 | 0.00 | 0.44 | 0.01 | 84 | 978.4 |
| 20260906000307 | 74 | 73 | 0.0 | 0.0 | 0.00 | 0.44 | 0.01 | 84 | 978.4 |
| 20260905235626 | 74 | 73 | 0.0 | 0.0 | 0.00 | 0.44 | 0.01 | 83 | 978.4 |
| 20260905234949 | 75 | 73 | 0.0 | 0.0 | 0.00 | 0.44 | 0.01 | 82 | 978.3 |
| 20260905234308 | 75 | 73 | 0.0 | 0.0 | 0.00 | 0.44 | 0.01 | 81 | 978.4 |
| 20260905233631 | 75 | 73 | 0.0 | 0.0 | 0.00 | 0.44 | 0.01 | 80 | 978.3 |
| 20260905232951 | 75 | 73 | 0.0 | 0.0 | 0.00 | 0.44 | 0.01 | 79 | 978.3 |
| 20260905232314 | 75 | 73 | 0.0 | 0.0 | 0.00 | 0.44 | 0.01 | 78 | 978.3 |
| 20260905231633 | 75 | 73 | 0.0 | 0.0 | 0.00 | 0.44 | 0.01 | 78 | 978.3 |
| 20260905230956 | 76 | 73 | 0.0 | 0.0 | 0.00 | 0.44 | 0.01 | 78 | 978.4 |
| 20260905230315 | 76 | 73 | 0.0 | 0.0 | 0.00 | 0.44 | 0.01 | 78 | 978.3 |
| 20260905225638 | 76 | 73 | 0.0 | 0.0 | 0.00 | 0.44 | 0.01 | 78 | 978.2 |
| 20260905224957 | 76 | 73 | 0.0 | 0.0 | 0.00 | 0.44 | 0.01 | 76 | 978.2 |
| 20260905224320 | 76 | 73 | 0.0 | 0.0 | 0.00 | 0.44 | 0.01 | 75 | 978.1 |
| 20260905223002 | 76 | 25 | 0.0 | 0.0 | 0.00 | 0.44 | 0.01 | 76 | 977.9 |